TAF KEAR
KEAR 270538Z 2706/2806 23007KT P6SM OVC180 FM270900 31009KT P6SM BKN200 FM271100 32009KT P6SM SCT250 WS006/34045KT FM271600 33018G27KT P6SM FEW250 FM280000 33007KT P6SM FEW250=
METAR KEAR
WC KEAR
WS KEAR
WV KEAR